Time;durP1;ratioP1;P1;durP2;ratioP2;P2;SDS_P1;SDS_P2;PMS_P1;PMS_P2;Temp;Humidity;BMP_temperature;BMP_pressure;BME280_temperature;BME280_humidity;BME280_pressure;Samples;Min_cycle;Max_cycle;Signal;HPM_P1;HPM_P2
2022/02/26 00:00:06;;;;;;;21.17;9.43;;;;;;;-146.41;100.00;57768.22;4981546;28;20424;-68
2022/02/26 00:02:34;;;;;;;21.40;10.05;;;;;;;-146.41;100.00;57768.22;4974547;28;20051;-67
2022/02/26 00:05:01;;;;;;;20.30;8.23;;;-0.10;99.90;;;-146.41;100.00;57768.22;4977749;28;20074;-67
2022/02/26 00:07:28;;;;;;;19.73;9.65;;;-0.20;99.90;;;-146.41;100.00;57768.22;4977194;28;20125;-67
2022/02/26 00:09:55;;;;;;;19.23;9.07;;;-0.20;99.90;;;-146.41;100.00;57768.22;4983217;28;20043;-68
2022/02/26 00:12:22;;;;;;;22.10;10.00;;;-0.30;99.90;;;-146.41;100.00;57768.22;4975469;28;20497;-67
2022/02/26 00:14:49;;;;;;;30.77;14.48;;;-0.30;99.90;;;-146.41;100.00;57768.22;4975556;28;20189;-68
2022/02/26 00:17:16;;;;;;;22.98;10.00;;;-0.40;99.90;;;-146.41;100.00;57768.22;4976346;28;20530;-67
2022/02/26 00:19:44;;;;;;;22.48;11.10;;;-0.30;99.90;;;-146.41;100.00;57768.22;4978174;28;20069;-67
2022/02/26 00:22:11;;;;;;;36.63;11.77;;;-0.30;99.90;;;-146.41;100.00;57768.22;4981072;28;20623;-68
2022/02/26 00:24:40;;;;;;;24.70;6.00;;;-0.30;99.90;;;-146.41;100.00;57768.22;4978155;28;20062;-68
2022/02/26 00:27:07;;;;;;;20.50;6.38;;;-0.20;99.90;;;-146.41;100.00;57768.22;4972002;28;20112;-67
2022/02/26 00:29:35;;;;;;;21.33;8.15;;;-0.10;99.90;;;-146.41;100.00;57768.22;4976968;28;20458;-67
2022/02/26 00:32:04;;;;;;;26.58;11.32;;;-0.20;99.90;;;-146.41;100.00;57768.22;4974048;28;20054;-68
2022/02/26 00:34:32;;;;;;;19.52;9.23;;;-0.30;99.90;;;-146.41;100.00;57768.22;4973756;28;20105;-68
2022/02/26 00:37:00;;;;;;;18.77;8.82;;;-0.40;99.90;;;-146.41;100.00;57768.22;4974224;28;20079;-68
2022/02/26 00:39:27;;;;;;;20.00;8.40;;;-0.30;99.90;;;-146.41;100.00;57768.22;4977041;28;20482;-68
2022/02/26 00:41:54;;;;;;;20.88;7.82;;;-0.30;99.90;;;-146.41;100.00;57768.22;4970915;28;20078;-67
2022/02/26 00:44:21;;;;;;;27.58;10.57;;;-0.30;99.90;;;-146.41;100.00;57768.22;4975065;28;20109;-67
2022/02/26 00:46:48;;;;;;;26.42;10.75;;;-0.30;99.90;;;-146.41;100.00;57768.22;4962991;28;20073;-67
2022/02/26 00:52:02;;;;;;;25.65;10.27;;;-0.40;99.90;;;-146.41;100.00;57768.22;4962495;28;20129;-67
2022/02/26 00:54:29;;;;;;;25.70;12.55;;;-0.40;99.90;;;-146.41;100.00;57768.22;4973479;28;20483;-68
2022/02/26 00:56:57;;;;;;;28.10;11.30;;;-0.40;99.90;;;-146.41;100.00;57768.22;4978663;28;20438;-68
2022/02/26 00:59:24;;;;;;;28.02;13.68;;;-0.40;99.90;;;-146.41;100.00;57768.22;4978336;28;20056;-67
2022/02/26 01:01:50;;;;;;;34.83;15.52;;;-0.30;99.90;;;-146.41;100.00;57768.22;4975428;28;20133;-68
2022/02/26 01:04:18;;;;;;;24.25;12.93;;;-0.40;99.90;;;-146.41;100.00;57768.22;4975061;28;20055;-67
2022/02/26 01:06:45;;;;;;;28.08;14.48;;;-0.40;99.90;;;-146.41;100.00;57768.22;4974187;28;20074;-67
2022/02/26 01:09:12;;;;;;;28.85;14.15;;;-0.40;99.90;;;-146.41;100.00;57768.22;4978307;28;20073;-67
2022/02/26 01:11:39;;;;;;;28.77;15.18;;;-0.40;99.90;;;-146.41;100.00;57768.22;4961840;28;20078;-66
2022/02/26 01:14:06;;;;;;;29.42;14.00;;;-0.40;99.90;;;-146.41;100.00;57768.22;4972890;28;20106;-68
2022/02/26 01:16:34;;;;;;;26.27;12.77;;;-0.40;99.90;;;-146.41;100.00;57768.22;4975516;28;20129;-68
2022/02/26 01:19:03;;;;;;;21.17;11.02;;;-0.50;99.90;;;-146.41;100.00;57768.22;4961992;28;20058;-68
2022/02/26 01:21:31;;;;;;;25.88;11.18;;;-0.50;99.90;;;-146.41;100.00;57768.22;4970475;28;20054;-68
2022/02/26 01:23:59;;;;;;;30.88;14.07;;;-0.50;99.90;;;-146.41;100.00;57768.22;4971759;28;20353;-68
2022/02/26 01:26:26;;;;;;;25.90;13.15;;;-0.50;99.90;;;-146.41;100.00;57768.22;4958443;28;20394;-68
2022/02/26 01:28:54;;;;;;;24.77;12.07;;;-0.60;99.90;;;-146.41;100.00;57768.22;4977215;28;20046;-68
2022/02/26 01:31:21;;;;;;;26.55;12.70;;;-0.60;99.90;;;-146.41;100.00;57768.22;4972967;28;20491;-68
2022/02/26 01:33:48;;;;;;;26.80;13.52;;;-0.50;99.90;;;-146.41;100.00;57768.22;4972464;28;20046;-68
2022/02/26 01:36:16;;;;;;;23.73;12.43;;;-0.50;99.90;;;-146.41;100.00;57768.22;4979193;28;20148;-68
2022/02/26 01:38:43;;;;;;;24.95;12.18;;;-0.40;99.90;;;-146.41;100.00;57768.22;4981416;28;20137;-68
2022/02/26 01:41:10;;;;;;;23.35;12.30;;;-0.40;99.90;;;-146.41;100.00;57768.22;4980592;28;20078;-68
2022/02/26 01:43:37;;;;;;;32.05;14.18;;;-0.40;99.90;;;-146.41;100.00;57768.22;4982754;28;20050;-68
2022/02/26 01:46:07;;;;;;;31.27;14.95;;;-0.40;99.90;;;-146.41;100.00;57768.22;4983638;28;20216;-68
2022/02/26 01:48:35;;;;;;;30.88;10.50;;;-0.40;99.90;;;-146.41;100.00;57768.22;4967080;28;20074;-68
2022/02/26 01:51:07;;;;;;;20.90;11.38;;;-0.40;99.90;;;-146.41;100.00;57768.22;4981121;28;20076;-68
2022/02/26 01:53:36;;;;;;;24.67;10.32;;;-0.40;99.90;;;-146.41;100.00;57768.22;4981701;28;20130;-68
2022/02/26 01:56:07;;;;;;;27.30;12.43;;;-0.40;99.90;;;-146.41;100.00;57768.22;4976039;28;20133;-68
2022/02/26 01:58:36;;;;;;;23.67;10.25;;;-0.40;99.90;;;-146.41;100.00;57768.22;4979454;28;20058;-68
2022/02/26 02:01:04;;;;;;;27.05;13.75;;;-0.40;99.90;;;-146.41;100.00;57768.22;4984310;28;20121;-68
2022/02/26 02:03:32;;;;;;;21.52;11.20;;;-0.40;99.90;;;-146.41;100.00;57768.22;4979572;28;20054;-68
2022/02/26 02:06:00;;;;;;;21.75;11.23;;;-0.30;99.90;;;-146.41;100.00;57768.22;4978024;28;20129;-68
2022/02/26 02:08:28;;;;;;;26.95;10.55;;;-0.30;99.90;;;-146.41;100.00;57768.22;4961966;28;20161;-68
2022/02/26 02:10:55;;;;;;;21.85;11.18;;;-0.20;99.90;;;-146.41;100.00;57768.22;4965096;28;20082;-68
2022/02/26 02:13:22;;;;;;;25.55;13.25;;;-0.20;99.90;;;-146.41;100.00;57768.22;4977344;28;20122;-68
2022/02/26 02:15:54;;;;;;;30.23;14.07;;;-0.20;99.90;;;-146.41;100.00;57768.22;4980807;28;20089;-68
2022/02/26 02:18:21;;;;;;;26.90;11.68;;;-0.10;99.90;;;-146.41;100.00;57768.22;4965878;28;20057;-68
2022/02/26 02:20:49;;;;;;;24.27;11.32;;;-0.10;99.90;;;-146.41;100.00;57768.22;4976748;28;20046;-68
2022/02/26 02:23:16;;;;;;;24.65;10.40;;;-0.10;99.90;;;-146.41;100.00;57768.22;4959467;28;20088;-68
2022/02/26 02:25:46;;;;;;;33.03;15.73;;;-0.10;99.90;;;-146.41;100.00;57768.22;4977084;28;20424;-68
2022/02/26 02:28:15;;;;;;;31.65;15.23;;;-0.10;99.90;;;-146.41;100.00;57768.22;4979641;28;20069;-68
2022/02/26 02:30:42;;;;;;;28.63;13.93;;;-0.10;99.90;;;-146.41;100.00;57768.22;4978297;28;20080;-68
2022/02/26 02:33:09;;;;;;;29.73;14.80;;;0.00;99.90;;;-146.41;100.00;57768.22;4980523;28;20246;-68
2022/02/26 02:35:41;;;;;;;34.78;15.88;;;-0.10;99.90;;;-146.41;100.00;57768.22;4982936;28;20052;-67
2022/02/26 02:38:13;;;;;;;35.08;16.40;;;0.00;99.90;;;-146.41;100.00;57768.22;4979122;28;20129;-68
2022/02/26 02:40:42;;;;;;;31.15;14.27;;;0.10;99.90;;;-146.41;100.00;57768.22;4977972;28;20068;-68
2022/02/26 02:43:10;;;;;;;29.42;13.23;;;0.10;99.90;;;-146.41;100.00;57768.22;4964964;28;20478;-68
2022/02/26 02:45:39;;;;;;;24.25;13.65;;;0.20;99.90;;;-146.41;100.00;57768.22;4979485;28;20132;-68
2022/02/26 02:48:07;;;;;;;28.33;13.52;;;0.30;99.90;;;-146.41;100.00;57768.22;4978446;28;20141;-68
2022/02/26 02:50:34;;;;;;;26.10;10.82;;;0.40;99.90;;;-146.41;100.00;57768.22;4981904;28;20073;-68
2022/02/26 02:53:01;;;;;;;19.73;10.73;;;0.40;99.90;;;-146.41;100.00;57768.22;4978079;28;20177;-68
2022/02/26 02:55:28;;;;;;;23.02;11.10;;;0.50;99.90;;;-146.41;100.00;57768.22;4975024;28;20218;-68
2022/02/26 02:57:57;;;;;;;25.73;13.40;;;0.50;99.90;;;-146.41;100.00;57768.22;4976086;28;20139;-68
2022/02/26 03:00:26;;;;;;;32.00;15.65;;;0.50;99.90;;;-146.41;100.00;57768.22;4979796;28;20106;-68
2022/02/26 03:02:53;;;;;;;23.48;11.43;;;0.50;99.90;;;-146.41;100.00;57768.22;4976299;28;20142;-68
2022/02/26 03:05:23;;;;;;;24.50;10.73;;;0.50;99.90;;;-146.41;100.00;57768.22;4977382;28;20053;-68
2022/02/26 03:07:51;;;;;;;26.95;13.18;;;0.50;99.90;;;-146.41;100.00;57768.22;4978101;28;20515;-68
2022/02/26 03:10:20;;;;;;;23.00;11.68;;;0.60;99.90;;;-146.41;100.00;57768.22;4972576;28;20134;-68
2022/02/26 03:12:51;;;;;;;29.95;12.05;;;0.50;99.90;;;-146.41;100.00;57768.22;4977301;28;20053;-68
2022/02/26 03:15:22;;;;;;;20.75;10.38;;;0.50;99.90;;;-146.41;100.00;57768.22;4975361;28;20047;-68
2022/02/26 03:17:51;;;;;;;23.48;11.77;;;0.50;99.90;;;-146.41;100.00;57768.22;4978852;28;20054;-68
2022/02/26 03:20:19;;;;;;;32.50;14.35;;;0.50;99.90;;;-146.41;100.00;57768.22;4977871;28;20134;-68
2022/02/26 03:22:46;;;;;;;26.42;12.25;;;0.50;99.90;;;-146.41;100.00;57768.22;4963758;28;20068;-68
2022/02/26 03:25:15;;;;;;;25.25;9.35;;;0.50;99.90;;;-146.41;100.00;57768.22;4977731;28;20060;-68
2022/02/26 03:27:42;;;;;;;21.73;10.25;;;0.50;99.90;;;-146.41;100.00;57768.22;4976747;28;20065;-68
2022/02/26 03:30:11;;;;;;;20.88;9.18;;;0.50;99.90;;;-146.41;100.00;57768.22;4976980;28;20137;-68
2022/02/26 03:32:39;;;;;;;23.30;11.00;;;0.50;99.90;;;-146.41;100.00;57768.22;4964157;28;20050;-68
2022/02/26 03:35:07;;;;;;;25.58;9.93;;;0.60;99.90;;;-146.41;100.00;57768.22;4980765;28;20060;-68
2022/02/26 03:37:35;;;;;;;19.98;10.23;;;0.50;99.90;;;-146.41;100.00;57768.22;4960917;28;20399;-68
2022/02/26 03:40:05;;;;;;;18.88;9.82;;;0.50;99.90;;;-146.41;100.00;57768.22;4977630;28;20062;-68
2022/02/26 03:42:32;;;;;;;16.23;8.15;;;0.50;99.90;;;-146.41;100.00;57768.22;4979256;28;20073;-68
2022/02/26 03:44:59;;;;;;;17.02;7.47;;;0.50;99.90;;;-146.41;100.00;57768.22;4982356;28;20481;-68
2022/02/26 03:47:27;;;;;;;22.13;11.02;;;0.50;99.90;;;-146.41;100.00;57768.22;4979191;28;20050;-68
2022/02/26 03:49:54;;;;;;;19.02;10.05;;;0.50;99.90;;;-146.41;100.00;57768.22;4980421;28;20054;-68
2022/02/26 03:52:22;;;;;;;21.17;9.00;;;0.50;99.90;;;-146.41;100.00;57768.22;4981466;28;20074;-68
2022/02/26 03:54:49;;;;;;;21.77;10.02;;;0.60;99.90;;;-146.41;100.00;57768.22;4977533;28;20153;-68
2022/02/26 03:57:16;;;;;;;31.58;12.55;;;0.60;99.90;;;-146.41;100.00;57768.22;4984478;28;20161;-68
2022/02/26 03:59:43;;;;;;;26.33;11.82;;;0.60;99.90;;;-146.41;100.00;57768.22;4982796;28;20503;-68
2022/02/26 04:02:10;;;;;;;24.95;10.15;;;0.60;99.90;;;-146.41;100.00;57768.22;4983072;28;20050;-68
2022/02/26 04:04:37;;;;;;;23.95;10.63;;;0.60;99.90;;;-146.41;100.00;57768.22;4976140;28;20126;-68
2022/02/26 04:07:05;;;;;;;22.15;9.60;;;0.50;99.90;;;-146.41;100.00;57768.22;4982788;28;20097;-68
2022/02/26 04:09:34;;;;;;;22.98;10.90;;;0.50;99.90;;;-146.41;100.00;57768.22;4979964;28;20137;-68
2022/02/26 04:12:01;;;;;;;22.48;9.73;;;0.40;99.90;;;-146.41;100.00;57768.22;4962434;28;20078;-68
2022/02/26 04:14:28;;;;;;;20.80;9.73;;;0.40;99.90;;;-146.41;100.00;57768.22;4980150;28;20512;-68
2022/02/26 04:16:55;;;;;;;19.63;9.90;;;0.40;99.90;;;-146.41;100.00;57768.22;4981157;28;20120;-68
2022/02/26 04:19:22;;;;;;;24.02;10.65;;;0.30;99.90;;;-146.41;100.00;57768.22;4986802;28;20058;-68
2022/02/26 04:21:50;;;;;;;25.45;8.73;;;0.30;99.90;;;-146.41;100.00;57768.22;4978725;28;20082;-68
2022/02/26 04:24:17;;;;;;;15.82;7.95;;;0.30;99.90;;;-146.41;100.00;57768.22;4983908;28;20134;-68
2022/02/26 04:26:46;;;;;;;21.95;9.30;;;0.30;99.90;;;-146.41;100.00;57768.22;4965693;28;20133;-68
2022/02/26 04:29:14;;;;;;;22.33;10.77;;;0.20;99.90;;;-146.41;100.00;57768.22;4982951;28;20560;-68
2022/02/26 04:31:41;;;;;;;20.90;10.27;;;0.20;99.90;;;-146.41;100.00;57768.22;4982477;28;20047;-68
2022/02/26 04:34:08;;;;;;;17.92;8.45;;;0.30;99.90;;;-146.41;100.00;57768.22;4982596;28;20093;-68
2022/02/26 04:36:35;;;;;;;16.75;8.93;;;0.30;99.90;;;-146.41;100.00;57768.22;4981651;28;20130;-68
2022/02/26 04:39:04;;;;;;;21.88;10.25;;;0.40;99.90;;;-146.41;100.00;57768.22;4981923;28;20566;-68
2022/02/26 04:41:31;;;;;;;22.17;11.68;;;0.50;99.90;;;-146.41;100.00;57768.22;4980663;28;20146;-68
2022/02/26 04:43:58;;;;;;;18.13;9.50;;;0.50;99.90;;;-146.41;100.00;57768.22;4980728;28;20055;-68
2022/02/26 04:46:26;;;;;;;17.38;8.18;;;0.50;99.90;;;-146.41;100.00;57768.22;4980574;28;20423;-68
2022/02/26 04:48:55;;;;;;;17.67;8.43;;;0.60;99.90;;;-146.41;100.00;57768.22;4978960;28;20046;-68
2022/02/26 04:51:22;;;;;;;19.27;10.10;;;0.60;99.90;;;-146.41;100.00;57768.22;4978431;28;20050;-68
2022/02/26 04:53:49;;;;;;;16.85;8.50;;;0.70;99.90;;;-146.41;100.00;57768.22;4979444;28;20129;-68
2022/02/26 04:56:16;;;;;;;18.13;8.93;;;0.70;99.90;;;-146.41;100.00;57768.22;4976187;28;20078;-68
2022/02/26 04:58:43;;;;;;;16.20;8.38;;;0.60;99.90;;;-146.41;100.00;57768.22;4968710;28;20074;-68
2022/02/26 05:01:10;;;;;;;17.33;8.80;;;0.60;99.90;;;-146.41;100.00;57768.22;4978666;28;20053;-68
2022/02/26 05:03:38;;;;;;;16.30;9.63;;;0.60;99.90;;;-146.41;100.00;57768.22;4981450;28;20142;-68
2022/02/26 05:06:05;;;;;;;17.33;8.98;;;0.70;99.90;;;-146.41;100.00;57768.22;4979496;28;20058;-68
2022/02/26 05:08:32;;;;;;;19.30;9.07;;;0.60;99.90;;;-146.41;100.00;57768.22;4981412;28;20137;-68
2022/02/26 05:11:01;;;;;;;18.90;9.27;;;0.60;99.90;;;-146.41;100.00;57768.22;4966091;28;20130;-68
2022/02/26 05:13:28;;;;;;;17.33;7.60;;;0.70;99.90;;;-146.41;100.00;57768.22;4967721;28;20135;-68
2022/02/26 05:15:55;;;;;;;21.52;8.50;;;0.70;99.90;;;-146.41;100.00;57768.22;4984519;28;20054;-68
2022/02/26 05:18:22;;;;;;;20.83;7.05;;;0.60;99.90;;;-146.41;100.00;57768.22;4981266;28;20138;-68
2022/02/26 05:20:50;;;;;;;18.58;7.43;;;0.60;99.90;;;-146.41;100.00;57768.22;4986275;28;20145;-68
2022/02/26 05:23:17;;;;;;;18.83;9.20;;;0.60;99.90;;;-146.41;100.00;57768.22;4980726;28;20149;-68
2022/02/26 05:25:44;;;;;;;19.48;8.93;;;0.50;99.90;;;-146.41;100.00;57768.22;4982069;28;20141;-68
2022/02/26 05:28:11;;;;;;;14.68;7.38;;;0.60;99.90;;;-146.41;100.00;57768.22;4979628;28;20042;-68
2022/02/26 05:30:38;;;;;;;16.75;7.50;;;0.50;99.90;;;-146.41;100.00;57768.22;4966222;28;20075;-68
2022/02/26 05:33:07;;;;;;;15.50;7.70;;;0.60;99.90;;;-146.41;100.00;57768.22;4972022;28;20046;-68
2022/02/26 05:35:34;;;;;;;15.27;8.13;;;0.60;99.90;;;-146.41;100.00;57768.22;4983678;28;20129;-68
2022/02/26 05:38:01;;;;;;;13.90;7.63;;;0.60;99.90;;;-146.41;100.00;57768.22;4978218;28;20370;-68
2022/02/26 05:40:28;;;;;;;17.67;7.97;;;0.60;99.90;;;-146.41;100.00;57768.22;4978465;28;20055;-68
2022/02/26 05:42:55;;;;;;;17.30;8.45;;;0.60;99.90;;;-146.41;100.00;57768.22;4980073;28;20450;-68
2022/02/26 05:45:22;;;;;;;14.68;6.15;;;0.60;99.90;;;-146.41;100.00;57768.22;4977701;28;20134;-68
2022/02/26 05:47:49;;;;;;;15.05;8.02;;;0.60;99.90;;;-146.41;100.00;57768.22;4981131;28;20141;-68
2022/02/26 05:50:17;;;;;;;18.15;8.70;;;0.50;99.90;;;-146.41;100.00;57768.22;4978604;28;20193;-67
2022/02/26 05:52:44;;;;;;;17.95;9.10;;;0.50;99.90;;;-146.41;100.00;57768.22;4978516;28;20057;-67
2022/02/26 05:55:13;;;;;;;16.60;6.97;;;0.50;99.90;;;-146.41;100.00;57768.22;4971134;28;20141;-68
2022/02/26 05:57:40;;;;;;;20.75;6.78;;;0.40;99.90;;;-146.41;100.00;57768.22;4978891;28;20065;-67
2022/02/26 06:00:09;;;;;;;21.80;8.60;;;0.40;99.90;;;-146.41;100.00;57768.22;4977017;28;20737;-67
2022/02/26 06:02:39;;;;;;;17.30;7.47;;;0.30;99.90;;;-146.41;100.00;57768.22;4979991;28;20058;-67
2022/02/26 06:05:07;;;;;;;22.73;9.50;;;0.30;99.90;;;-146.41;100.00;57768.22;4981166;28;20530;-67
2022/02/26 06:07:34;;;;;;;18.30;8.18;;;0.40;99.90;;;-146.41;100.00;57768.22;4982030;28;20448;-67
2022/02/26 06:10:01;;;;;;;18.48;7.88;;;0.40;99.90;;;-146.41;100.00;57768.22;4978221;28;20109;-68
2022/02/26 06:12:29;;;;;;;20.30;9.18;;;0.40;99.90;;;-146.41;100.00;57768.22;4981799;28;20129;-68
2022/02/26 06:15:01;;;;;;;19.25;9.25;;;0.40;99.90;;;-146.41;100.00;57768.22;4969679;28;20047;-67
2022/02/26 06:17:28;;;;;;;26.83;10.10;;;0.40;99.90;;;-146.41;100.00;57768.22;4977251;28;20108;-67
2022/02/26 06:19:55;;;;;;;29.30;9.45;;;0.40;99.90;;;-146.41;100.00;57768.22;4976453;28;20073;-67
2022/02/26 06:22:23;;;;;;;22.60;8.00;;;0.40;99.90;;;-146.41;100.00;57768.22;4982467;28;20470;-67
2022/02/26 06:24:50;;;;;;;19.30;8.05;;;0.40;99.90;;;-146.41;100.00;57768.22;4977632;28;20582;-67
2022/02/26 06:27:17;;;;;;;20.40;6.57;;;0.50;99.90;;;-146.41;100.00;57768.22;4978207;28;20066;-67
2022/02/26 06:29:44;;;;;;;20.45;5.28;;;0.50;99.90;;;-146.41;100.00;57768.22;4979474;28;20042;-68
2022/02/26 06:32:11;;;;;;;14.73;3.92;;;0.50;99.90;;;-146.41;100.00;57768.22;4979284;28;20129;-68
2022/02/26 06:34:38;;;;;;;20.23;6.05;;;0.70;99.90;;;-146.41;100.00;57768.22;4976417;28;20132;-68
2022/02/26 06:37:05;;;;;;;16.25;5.53;;;0.80;99.90;;;-146.41;100.00;57768.22;4969643;28;20218;-68
2022/02/26 06:39:32;;;;;;;15.27;4.53;;;0.70;99.90;;;-146.41;100.00;57768.22;4977289;28;20060;-68
2022/02/26 06:42:00;;;;;;;15.27;6.20;;;0.70;99.90;;;-146.41;100.00;57768.22;4981019;28;20058;-67
2022/02/26 06:44:27;;;;;;;15.13;5.03;;;0.60;99.90;;;-146.41;100.00;57768.22;4980687;28;20136;-67
2022/02/26 06:46:55;;;;;;;20.33;6.25;;;0.50;99.90;;;-146.41;100.00;57768.22;4965919;28;20064;-67
2022/02/26 06:49:22;;;;;;;14.23;5.68;;;0.40;99.90;;;-146.41;100.00;57768.22;4974451;28;20050;-68
2022/02/26 06:51:49;;;;;;;15.85;4.40;;;0.30;99.90;;;-146.41;100.00;57768.22;4966446;28;20099;-67
2022/02/26 06:54:16;;;;;;;19.75;7.53;;;0.30;99.90;;;-146.41;100.00;57768.22;4980022;28;20133;-67
2022/02/26 06:56:43;;;;;;;22.08;8.40;;;0.30;99.90;;;-146.41;100.00;57768.22;4982203;28;20053;-68
2022/02/26 06:59:10;;;;;;;20.85;7.68;;;0.20;99.90;;;-146.41;100.00;57768.22;4978825;28;20137;-68
2022/02/26 07:01:37;;;;;;;21.98;7.53;;;0.20;99.90;;;-146.41;100.00;57768.22;4976781;28;20129;-67
2022/02/26 07:04:05;;;;;;;19.38;7.55;;;0.20;99.90;;;-146.41;100.00;57768.22;4977969;28;20058;-68
2022/02/26 07:06:34;;;;;;;24.65;8.98;;;0.10;99.90;;;-146.41;100.00;57768.22;4965223;28;20341;-68
2022/02/26 07:09:01;;;;;;;17.50;7.85;;;0.10;99.90;;;-146.41;100.00;57768.22;4981681;28;20081;-69
2022/02/26 07:11:28;;;;;;;18.58;7.63;;;0.10;99.90;;;-146.41;100.00;57768.22;4976798;28;20070;-69
2022/02/26 07:13:55;;;;;;;15.23;7.20;;;0.10;99.90;;;-146.41;100.00;57768.22;4971797;28;20089;-67
2022/02/26 07:16:22;;;;;;;26.30;8.00;;;0.00;99.90;;;-146.41;100.00;57768.22;4975164;28;20077;-67
2022/02/26 07:18:49;;;;;;;20.20;7.95;;;0.00;99.90;;;-146.41;100.00;57768.22;4978454;28;20129;-67
2022/02/26 07:21:16;;;;;;;17.05;6.40;;;0.10;99.90;;;-146.41;100.00;57768.22;4980848;28;20138;-67
2022/02/26 07:23:43;;;;;;;13.32;5.07;;;0.20;99.90;;;-146.41;100.00;57768.22;4984061;28;20463;-67
2022/02/26 07:26:10;;;;;;;15.75;4.00;;;0.10;99.90;;;-146.41;100.00;57768.22;4979512;28;20050;-67
2022/02/26 07:28:40;;;;;;;18.50;5.55;;;0.10;99.90;;;-146.41;100.00;57768.22;4984633;28;20055;-67
2022/02/26 07:31:07;;;;;;;17.00;4.03;;;0.00;99.90;;;-146.41;100.00;57768.22;4981916;28;20070;-67
2022/02/26 07:33:34;;;;;;;17.27;4.45;;;0.10;99.90;;;-146.41;100.00;57768.22;4981957;28;20090;-69
2022/02/26 07:36:01;;;;;;;19.80;5.10;;;0.20;99.90;;;-146.41;100.00;57768.22;4950441;28;20050;-66
2022/02/26 07:38:28;;;;;;;15.75;4.25;;;0.30;99.90;;;-146.41;100.00;57768.22;4964577;28;20133;-67
2022/02/26 07:40:55;;;;;;;17.10;4.07;;;0.30;99.90;;;-146.41;100.00;57768.22;4981517;28;20141;-67
2022/02/26 07:43:22;;;;;;;18.75;5.15;;;0.30;99.90;;;-146.41;100.00;57768.22;4962769;28;20117;-67
2022/02/26 07:45:49;;;;;;;25.67;6.15;;;0.30;99.90;;;-146.41;100.00;57768.22;4983514;28;20046;-67
2022/02/26 07:48:16;;;;;;;17.60;5.70;;;0.30;99.90;;;-146.41;100.00;57768.22;4981296;28;20447;-67
2022/02/26 07:50:43;;;;;;;13.90;5.70;;;0.40;99.90;;;-146.41;100.00;57768.22;4982611;28;20046;-66
2022/02/26 07:53:10;;;;;;;18.83;6.15;;;0.50;99.90;;;-146.41;100.00;57768.22;4980932;28;20122;-67
2022/02/26 07:55:38;;;;;;;18.92;6.07;;;0.60;99.90;;;-146.41;100.00;57768.22;4982501;28;20145;-67
2022/02/26 07:58:06;;;;;;;20.38;5.05;;;0.70;99.90;;;-146.41;100.00;57768.22;4983293;28;20111;-67
2022/02/26 08:00:34;;;;;;;13.05;2.63;;;0.90;99.90;;;-146.41;100.00;57768.22;4956216;28;20047;-67
2022/02/26 08:03:02;;;;;;;16.30;4.35;;;1.30;99.90;;;-146.41;100.00;57768.22;4981840;28;20132;-67
2022/02/26 08:05:29;;;;;;;18.77;3.60;;;2.00;99.90;;;-146.41;100.00;57768.22;4971240;28;20089;-67
2022/02/26 08:07:58;;;;;;;15.73;2.60;;;2.80;99.90;;;-146.41;100.00;57768.22;4982553;28;20749;-67
2022/02/26 08:10:26;;;;;;;12.63;2.33;;;3.70;99.90;;;-146.41;100.00;57768.22;4980430;28;20089;-68
2022/02/26 08:12:55;;;;;;;13.75;2.30;;;4.60;99.90;;;-146.41;100.00;57768.22;4980670;28;20063;-68
2022/02/26 08:15:25;;;;;;;10.45;1.90;;;5.30;99.90;;;-146.41;100.00;57768.22;4980459;28;20078;-68
2022/02/26 08:17:56;;;;;;;10.02;1.75;;;6.10;99.90;;;-146.41;100.00;57768.22;4976766;28;20097;-68
2022/02/26 08:20:25;;;;;;;12.30;1.95;;;6.70;99.90;;;-146.41;100.00;57768.22;4977597;28;20134;-68
2022/02/26 08:22:56;;;;;;;13.65;1.80;;;7.00;99.90;;;-146.41;100.00;57768.22;4980176;28;20053;-68
2022/02/26 08:25:24;;;;;;;8.23;2.20;;;7.20;99.90;;;-146.41;100.00;57768.22;4977369;28;20090;-68
2022/02/26 08:27:51;;;;;;;13.27;2.50;;;7.30;99.90;;;-146.41;100.00;57768.22;4977887;28;20133;-68
2022/02/26 08:30:19;;;;;;;12.73;2.35;;;6.90;99.90;;;-146.41;100.00;57768.22;4975924;28;20137;-68
2022/02/26 08:32:47;;;;;;;12.85;2.05;;;6.90;99.90;;;-146.41;100.00;57768.22;4977815;28;20117;-68
2022/02/26 08:35:15;;;;;;;15.80;2.08;;;6.80;99.90;;;-146.41;100.00;57768.22;4979231;28;20141;-69
2022/02/26 08:37:46;;;;;;;11.73;1.85;;;7.00;99.90;;;-146.41;100.00;57768.22;4983809;28;20109;-68
2022/02/26 08:40:15;;;;;;;16.90;2.15;;;7.20;99.90;;;-146.41;100.00;57768.22;4978894;28;20074;-68
2022/02/26 08:42:43;;;;;;;19.58;2.10;;;7.30;99.90;;;-146.41;100.00;57768.22;4984513;28;20466;-69
2022/02/26 08:45:11;;;;;;;15.25;2.13;;;7.20;99.90;;;-146.41;100.00;57768.22;4981490;28;20054;-68
2022/02/26 08:47:40;;;;;;;13.10;2.28;;;7.50;99.90;;;-146.41;100.00;57768.22;4969932;28;20169;-66
2022/02/26 08:50:11;;;;;;;10.75;1.90;;;7.40;99.90;;;-146.41;100.00;57768.22;4983724;28;20460;-67
2022/02/26 08:52:39;;;;;;;12.52;2.85;;;7.90;99.90;;;-146.41;100.00;57768.22;4968747;28;20505;-67
2022/02/26 08:55:08;;;;;;;14.52;2.40;;;7.90;99.90;;;-146.41;100.00;57768.22;4980458;28;20519;-67
2022/02/26 08:57:35;;;;;;;13.95;2.17;;;7.80;99.90;;;-146.41;100.00;57768.22;4970357;28;20575;-66
2022/02/26 09:00:07;;;;;;;13.10;2.60;;;7.20;99.90;;;-146.41;100.00;57768.22;4979209;28;20137;-66
2022/02/26 09:02:35;;;;;;;10.15;2.30;;;6.90;99.90;;;-146.41;100.00;57768.22;4965367;28;20164;-66
2022/02/26 09:05:02;;;;;;;18.15;2.72;;;6.40;99.90;;;-146.41;100.00;57768.22;4980695;28;20049;-67
2022/02/26 09:07:30;;;;;;;13.75;2.55;;;5.90;99.90;;;-146.41;100.00;57768.22;4962251;28;20127;-67
2022/02/26 09:09:57;;;;;;;15.32;2.58;;;5.30;99.90;;;-146.41;100.00;57768.22;4977857;28;20078;-67
2022/02/26 09:12:24;;;;;;;18.77;2.85;;;5.00;99.90;;;-146.41;100.00;57768.22;4979371;28;20129;-67
2022/02/26 09:14:51;;;;;;;18.58;3.28;;;4.60;99.90;;;-146.41;100.00;57768.22;4981792;28;20125;-67
2022/02/26 09:17:18;;;;;;;15.93;3.60;;;4.50;99.90;;;-146.41;100.00;57768.22;4979991;28;20484;-67
2022/02/26 09:19:45;;;;;;;18.35;2.83;;;4.30;99.90;;;-146.41;100.00;57768.22;4976513;28;20054;-67
2022/02/26 09:22:13;;;;;;;17.55;3.03;;;4.10;99.90;;;-146.41;100.00;57768.22;4979678;28;20134;-67
2022/02/26 09:24:40;;;;;;;12.05;2.42;;;4.10;99.90;;;-146.41;100.00;57768.22;4980666;28;20115;-67
2022/02/26 09:27:08;;;;;;;14.40;2.47;;;4.00;99.90;;;-146.41;100.00;57768.22;4975577;28;20052;-67
2022/02/26 09:29:35;;;;;;;14.63;2.88;;;4.00;99.90;;;-146.41;100.00;57768.22;4977742;28;20630;-67
2022/02/26 09:32:02;;;;;;;17.63;3.20;;;3.90;99.90;;;-146.41;100.00;57768.22;4961453;28;20456;-67
2022/02/26 09:34:29;;;;;;;16.35;2.72;;;3.90;99.90;;;-146.41;100.00;57768.22;4981582;28;20058;-66
2022/02/26 09:36:56;;;;;;;20.88;2.92;;;3.90;99.90;;;-146.41;100.00;57768.22;4982235;28;20046;-67
2022/02/26 09:39:23;;;;;;;17.83;3.42;;;3.80;99.90;;;-146.41;100.00;57768.22;4985804;28;20070;-68
2022/02/26 09:41:51;;;;;;;16.65;3.42;;;3.90;99.90;;;-146.41;100.00;57768.22;4983081;28;20463;-66
2022/02/26 09:44:20;;;;;;;13.85;2.55;;;3.90;99.90;;;-146.41;100.00;57768.22;4968264;28;20400;-66
2022/02/26 09:46:48;;;;;;;17.92;2.65;;;4.00;99.90;;;-146.41;100.00;57768.22;4971723;28;20054;-67
2022/02/26 09:49:16;;;;;;;15.15;2.60;;;4.20;99.90;;;-146.41;100.00;57768.22;4981109;28;20137;-67
2022/02/26 09:51:45;;;;;;;16.17;2.10;;;4.50;99.90;;;-146.41;100.00;57768.22;4979662;28;20126;-67
2022/02/26 09:54:15;;;;;;;12.02;2.55;;;4.70;99.90;;;-146.41;100.00;57768.22;4979987;28;20402;-67
2022/02/26 09:56:43;;;;;;;13.13;2.28;;;5.00;99.90;;;-146.41;100.00;57768.22;4969750;28;20177;-67
2022/02/26 09:59:14;;;;;;;10.70;1.55;;;5.10;99.90;;;-146.41;100.00;57768.22;4976884;28;20050;-67